Time;durP1;ratioP1;P1;durP2;ratioP2;P2;SDS_P1;SDS_P2;PMS_P1;PMS_P2;Temp;Humidity;BMP_temperature;BMP_pressure;BME280_temperature;BME280_humidity;BME280_pressure;Samples;Min_cycle;Max_cycle;Signal;HPM_P1;HPM_P2
2023/02/09 00:01:03;;;;;;;95.65;50.42;;;-3.20;99.90;;;;;;4954685;28;20257;-80
2023/02/09 00:03:31;;;;;;;124.55;57.22;;;-3.30;99.90;;;;;;4946025;29;20482;-80
2023/02/09 00:06:03;;;;;;;94.82;50.85;;;-3.30;99.90;;;;;;4962577;29;20215;-80
2023/02/09 00:08:31;;;;;;;96.10;51.67;;;-3.30;99.90;;;;;;4936676;29;20557;-80
2023/02/09 00:10:58;;;;;;;103.60;56.65;;;-3.30;99.90;;;;;;4942587;29;20196;-81
2023/02/09 00:13:25;;;;;;;89.97;47.45;;;-3.30;99.90;;;;;;4943279;29;20228;-80
2023/02/09 00:15:55;;;;;;;90.75;49.60;;;-3.30;99.90;;;;;;4953946;29;20246;-79
2023/02/09 00:18:24;;;;;;;93.35;49.83;;;-3.30;99.90;;;;;;4953103;28;20208;-80
2023/02/09 00:20:56;;;;;;;90.53;49.13;;;-3.40;99.90;;;;;;4940508;29;20212;-81
2023/02/09 00:23:23;;;;;;;96.68;49.55;;;-3.20;99.90;;;;;;4954496;28;20251;-80
2023/02/09 00:25:51;;;;;;;97.80;49.50;;;-3.30;99.90;;;;;;4944343;29;20215;-79
2023/02/09 00:28:18;;;;;;;90.90;47.38;;;-3.30;99.90;;;;;;4949201;29;20440;-80
2023/02/09 00:30:47;;;;;;;104.10;52.53;;;-3.40;99.90;;;;;;4961684;28;20280;-79
2023/02/09 00:33:14;;;;;;;102.10;53.13;;;-3.40;99.90;;;;;;4954513;28;20570;-81
2023/02/09 00:35:42;;;;;;;107.07;52.13;;;-3.40;99.90;;;;;;4942882;29;20225;-80
2023/02/09 00:38:10;;;;;;;100.35;52.78;;;-3.40;99.90;;;;;;4933939;29;20407;-80
2023/02/09 00:40:39;;;;;;;112.88;58.20;;;-3.40;99.90;;;;;;4944083;29;20207;-81
2023/02/09 00:43:06;;;;;;;92.72;56.05;;;-3.40;99.90;;;;;;4958745;28;20208;-83
2023/02/09 00:45:34;;;;;;;105.38;54.35;;;-3.40;99.90;;;;;;4958784;28;20193;-81
2023/02/09 00:48:01;;;;;;;111.13;58.83;;;-3.50;99.90;;;;;;4957571;29;20219;-80
2023/02/09 00:50:28;;;;;;;100.53;58.60;;;-3.50;99.90;;;;;;4951737;29;20209;-80
2023/02/09 00:52:55;;;;;;;115.88;54.60;;;-3.40;99.90;;;;;;4940882;29;20526;-80
2023/02/09 00:55:22;;;;;;;107.65;54.53;;;-3.50;99.90;;;;;;4935689;29;20203;-79
2023/02/09 00:57:50;;;;;;;109.38;58.63;;;-3.50;99.90;;;;;;4945790;29;20263;-80
2023/02/09 01:00:17;;;;;;;104.85;57.05;;;-3.60;99.90;;;;;;4945684;29;20224;-82
2023/02/09 01:02:43;;;;;;;109.10;59.08;;;-3.70;99.90;;;;;;4948789;29;20208;-79
2023/02/09 01:05:10;;;;;;;110.10;61.17;;;-3.70;99.90;;;;;;4945126;29;20239;-81
2023/02/09 01:07:37;;;;;;;104.63;55.85;;;-3.60;99.90;;;;;;4956288;29;20417;-80
2023/02/09 01:10:04;;;;;;;106.97;58.83;;;-3.60;99.90;;;;;;4948655;29;20208;-79
2023/02/09 01:12:32;;;;;;;101.00;55.92;;;-3.60;99.90;;;;;;4947896;29;20219;-79
2023/02/09 01:15:00;;;;;;;103.60;54.13;;;-3.60;99.90;;;;;;4943048;29;20282;-77
2023/02/09 01:17:28;;;;;;;112.68;61.72;;;-3.50;99.90;;;;;;4957680;29;20211;-79
2023/02/09 01:19:55;;;;;;;109.18;57.35;;;-3.60;99.90;;;;;;4942734;29;20210;-79
2023/02/09 01:22:22;;;;;;;108.10;56.15;;;-3.70;99.90;;;;;;4955127;29;20203;-78
2023/02/09 01:24:49;;;;;;;119.75;61.17;;;-3.70;99.90;;;;;;4940354;29;20244;-77
2023/02/09 01:27:17;;;;;;;124.03;62.75;;;-3.70;99.90;;;;;;4947320;29;20218;-78
2023/02/09 01:29:45;;;;;;;114.78;59.72;;;-3.70;99.90;;;;;;4948069;29;20567;-79
2023/02/09 01:32:11;;;;;;;117.53;61.88;;;-3.70;99.90;;;;;;4946750;29;20199;-77
2023/02/09 01:34:39;;;;;;;117.80;66.68;;;-3.70;99.90;;;;;;4952436;29;20458;-78
2023/02/09 01:37:06;;;;;;;122.00;61.92;;;-3.90;99.90;;;;;;4950958;28;20205;-80
2023/02/09 01:39:33;;;;;;;113.78;65.25;;;-3.80;99.90;;;;;;4946280;29;20275;-78
2023/02/09 01:42:02;;;;;;;117.10;63.97;;;-3.80;99.90;;;;;;4940592;29;20209;-79
2023/02/09 01:44:29;;;;;;;117.40;64.70;;;-3.90;99.90;;;;;;4948746;29;20286;-80
2023/02/09 01:46:55;;;;;;;123.75;63.42;;;-3.80;99.90;;;;;;4947329;29;20199;-78
2023/02/09 01:49:25;;;;;;;118.25;67.03;;;-3.80;99.90;;;;;;4945748;28;20432;-81
2023/02/09 01:52:10;;;;;;;125.95;64.22;;;-3.70;99.90;;;;;;4953866;28;20530;-80
2023/02/09 01:54:45;;;;;;;117.20;63.53;;;-3.70;99.90;;;;;;4946956;29;20216;-82
2023/02/09 01:57:26;;;;;;;111.93;60.47;;;-3.70;99.90;;;;;;4958076;28;20213;-82
2023/02/09 01:59:59;;;;;;;109.13;60.58;;;-3.70;99.90;;;;;;4946767;29;20207;-80
2023/02/09 02:02:26;;;;;;;114.25;57.72;;;-3.70;99.90;;;;;;4953676;29;20258;-81
2023/02/09 02:04:54;;;;;;;115.30;59.42;;;-3.70;99.90;;;;;;4944405;29;20239;-80
2023/02/09 02:07:26;;;;;;;103.82;53.83;;;-3.70;99.90;;;;;;4970975;28;20595;-82
2023/02/09 02:09:54;;;;;;;96.32;50.38;;;-3.60;99.90;;;;;;4944094;29;20246;-81
2023/02/09 02:12:22;;;;;;;104.88;56.42;;;-3.70;99.90;;;;;;4951456;29;20222;-80
2023/02/09 02:14:49;;;;;;;115.38;57.63;;;-3.60;99.90;;;;;;4945798;29;20207;-83
2023/02/09 02:17:51;;;;;;;111.13;58.65;;;-3.60;99.90;;;;;;4952851;29;20598;-78
2023/02/09 02:20:21;;;;;;;95.85;50.03;;;-3.60;99.90;;;;;;4946379;29;20203;-80
2023/02/09 02:23:14;;;;;;;92.70;49.85;;;-3.60;99.90;;;;;;4947309;29;20215;-78
2023/02/09 02:26:03;;;;;;;93.60;50.95;;;-3.60;99.90;;;;;;4921738;28;20215;-79
2023/02/09 02:28:51;;;;;;;97.13;50.28;;;-3.50;99.90;;;;;;4949211;29;20263;-79
2023/02/09 02:31:49;;;;;;;95.75;49.45;;;-3.60;99.90;;;;;;4959044;29;20212;-80
2023/02/09 02:34:35;;;;;;;97.18;52.60;;;-3.70;99.90;;;;;;4950551;29;20235;-80
2023/02/09 02:37:13;;;;;;;103.03;50.00;;;-3.60;99.90;;;;;;4937861;29;20753;-80
2023/02/09 02:39:56;;;;;;;92.32;48.22;;;-3.60;99.90;;;;;;4953709;29;20232;-78
2023/02/09 02:42:57;;;;;;;98.80;46.70;;;-3.60;99.90;;;;;;4946362;29;20587;-79
2023/02/09 02:45:46;;;;;;;95.68;47.78;;;-3.70;99.90;;;;;;4938235;28;20231;-78
2023/02/09 02:48:39;;;;;;;95.43;49.33;;;-3.60;99.90;;;;;;4949172;29;20507;-79
2023/02/09 02:51:19;;;;;;;93.50;48.50;;;-3.70;99.90;;;;;;4947576;29;20204;-81
2023/02/09 02:53:52;;;;;;;93.13;47.13;;;-3.70;99.90;;;;;;4946083;29;20215;-80
2023/02/09 02:56:33;;;;;;;90.50;46.17;;;-3.70;99.90;;;;;;4951291;29;20556;-81
2023/02/09 02:59:04;;;;;;;84.40;47.40;;;-3.70;99.90;;;;;;4946924;28;20189;-80
2023/02/09 03:01:38;;;;;;;95.07;49.13;;;-3.70;99.90;;;;;;4974736;28;20205;-78
2023/02/09 03:04:06;;;;;;;104.88;50.53;;;-3.60;99.90;;;;;;4948080;29;20231;-79
2023/02/09 03:06:36;;;;;;;92.35;45.70;;;-3.60;99.90;;;;;;4956850;29;20207;-79
2023/02/09 03:09:04;;;;;;;78.68;46.78;;;-3.60;99.90;;;;;;4945486;29;20511;-79
2023/02/09 03:11:41;;;;;;;87.72;46.65;;;-3.60;99.90;;;;;;4943684;29;20267;-79
2023/02/09 03:14:27;;;;;;;76.35;44.28;;;-3.50;99.90;;;;;;4951114;29;20230;-79
2023/02/09 03:17:09;;;;;;;78.28;42.25;;;-3.60;99.90;;;;;;4953864;29;20255;-80
2023/02/09 03:19:47;;;;;;;74.95;41.10;;;-3.50;99.90;;;;;;4952998;29;20655;-80
2023/02/09 03:22:25;;;;;;;67.82;38.00;;;-3.40;99.90;;;;;;4950495;29;20691;-79
2023/02/09 03:25:08;;;;;;;75.45;38.13;;;-3.30;99.90;;;;;;4941082;29;20249;-78
2023/02/09 03:27:41;;;;;;;75.60;40.70;;;-3.20;99.90;;;;;;4951372;29;20211;-80
2023/02/09 03:30:12;;;;;;;78.25;42.53;;;-3.30;99.90;;;;;;4949828;29;20216;-79
2023/02/09 03:32:40;;;;;;;69.57;39.10;;;-3.40;99.90;;;;;;4950801;29;20211;-78
2023/02/09 03:35:10;;;;;;;74.70;44.60;;;-3.40;99.90;;;;;;4951227;29;20234;-80
2023/02/09 03:37:38;;;;;;;84.88;42.22;;;-3.50;99.90;;;;;;4942760;29;20220;-80
2023/02/09 03:40:05;;;;;;;73.57;43.90;;;-3.40;99.90;;;;;;4943139;29;20212;-80
2023/02/09 03:42:32;;;;;;;73.93;41.80;;;-3.40;99.90;;;;;;4935785;29;20239;-79
2023/02/09 03:45:00;;;;;;;77.97;44.90;;;-3.50;99.90;;;;;;4947897;29;20293;-79
2023/02/09 03:47:26;;;;;;;77.63;45.17;;;-3.50;99.90;;;;;;4951147;29;20220;-79
2023/02/09 03:49:54;;;;;;;74.97;45.75;;;-3.60;99.90;;;;;;4949050;29;20275;-80
2023/02/09 03:52:20;;;;;;;80.57;46.17;;;-3.60;99.90;;;;;;4951920;28;20199;-82
2023/02/09 03:54:48;;;;;;;81.57;43.97;;;-3.60;99.90;;;;;;4937865;29;20215;-79
2023/02/09 03:57:14;;;;;;;98.13;49.00;;;-3.70;99.90;;;;;;4949982;29;20267;-80
2023/02/09 03:59:41;;;;;;;87.50;45.88;;;-3.60;99.90;;;;;;4954564;29;20227;-80
2023/02/09 04:02:09;;;;;;;81.60;45.75;;;-3.60;99.90;;;;;;4958089;29;20340;-79
2023/02/09 04:04:36;;;;;;;97.13;51.50;;;-3.60;99.90;;;;;;4945042;28;20262;-79
2023/02/09 04:07:04;;;;;;;77.60;45.33;;;-3.70;99.90;;;;;;4944764;29;20252;-79
2023/02/09 04:09:31;;;;;;;82.72;50.58;;;-3.80;99.90;;;;;;4945803;29;20239;-80
2023/02/09 04:11:57;;;;;;;90.13;48.42;;;-3.80;99.90;;;;;;4950096;29;20384;-79
2023/02/09 04:14:25;;;;;;;89.05;50.95;;;-3.80;99.90;;;;;;4956578;29;20447;-79
2023/02/09 04:16:52;;;;;;;92.88;52.53;;;-3.90;99.90;;;;;;4952459;28;20208;-80
2023/02/09 04:19:19;;;;;;;99.45;52.42;;;-4.00;99.90;;;;;;4946680;29;20264;-78
2023/02/09 04:21:46;;;;;;;89.05;51.45;;;-3.90;99.90;;;;;;4959000;29;20204;-81
2023/02/09 04:24:13;;;;;;;113.53;56.30;;;-4.00;99.90;;;;;;4944779;29;20654;-80
2023/02/09 04:26:42;;;;;;;121.00;54.75;;;-4.10;99.90;;;;;;4941895;29;20220;-81
2023/02/09 04:29:09;;;;;;;116.72;55.58;;;-4.20;99.90;;;;;;4945127;29;20219;-80
2023/02/09 04:31:36;;;;;;;111.65;55.40;;;-4.20;99.90;;;;;;4942259;28;20510;-82
2023/02/09 04:34:03;;;;;;;111.50;53.85;;;-4.30;99.90;;;;;;4947957;29;20199;-79
2023/02/09 04:36:30;;;;;;;100.15;53.88;;;-4.30;99.90;;;;;;4953496;29;20231;-81
2023/02/09 04:38:57;;;;;;;118.07;55.10;;;-4.30;99.90;;;;;;4943794;29;20225;-79
2023/02/09 04:41:24;;;;;;;101.60;54.20;;;-4.30;99.90;;;;;;4937254;29;20219;-79
2023/02/09 04:43:51;;;;;;;107.93;53.75;;;-4.20;99.90;;;;;;4945022;29;20218;-80
2023/02/09 04:46:18;;;;;;;94.00;48.63;;;-4.20;99.90;;;;;;4958219;28;20316;-83
2023/02/09 04:48:45;;;;;;;91.88;51.55;;;-4.10;99.90;;;;;;4958825;28;20227;-82
2023/02/09 04:51:13;;;;;;;91.20;48.85;;;-4.10;99.90;;;;;;4953894;28;20218;-80
2023/02/09 04:53:40;;;;;;;98.70;50.88;;;-4.00;99.90;;;;;;4942533;29;20222;-80
2023/02/09 04:56:08;;;;;;;90.07;49.30;;;-4.10;99.90;;;;;;4950132;29;20250;-80
2023/02/09 05:01:23;;;;;;;90.10;45.72;;;-4.10;99.90;;;;;;4945803;29;20247;-81
2023/02/09 05:03:50;;;;;;;96.55;48.33;;;-4.10;99.90;;;;;;4945122;29;20211;-81
2023/02/09 05:06:18;;;;;;;100.05;51.40;;;-4.10;99.90;;;;;;4957850;28;20625;-81
2023/02/09 05:08:45;;;;;;;113.88;55.33;;;-4.20;99.90;;;;;;4944247;28;20208;-80
2023/02/09 05:11:13;;;;;;;170.65;86.05;;;-4.10;99.90;;;;;;4952877;28;20203;-80
2023/02/09 05:13:40;;;;;;;267.10;131.50;;;-4.10;99.90;;;;;;4946555;29;20212;-83
2023/02/09 05:16:11;;;;;;;270.88;140.57;;;-4.00;99.90;;;;;;4965558;28;20203;-80
2023/02/09 05:18:37;;;;;;;292.48;136.25;;;-4.00;99.90;;;;;;4953490;28;20196;-80
2023/02/09 05:21:05;;;;;;;292.73;134.88;;;-3.90;99.90;;;;;;4947310;29;20206;-81
2023/02/09 05:23:32;;;;;;;198.77;97.00;;;-4.00;99.90;;;;;;4946285;29;20219;-81
2023/02/09 05:25:59;;;;;;;224.75;115.88;;;-3.90;99.90;;;;;;4948346;28;20235;-81
2023/02/09 05:28:27;;;;;;;186.13;97.43;;;-4.00;99.90;;;;;;4944927;29;20277;-80
2023/02/09 05:30:54;;;;;;;249.05;110.25;;;-3.90;99.90;;;;;;4945721;29;20631;-79
2023/02/09 05:33:23;;;;;;;167.20;92.85;;;-3.90;99.90;;;;;;4960414;29;20273;-80
2023/02/09 05:35:52;;;;;;;171.05;81.72;;;-3.90;99.90;;;;;;4951361;29;20216;-81
2023/02/09 05:38:18;;;;;;;139.07;73.20;;;-3.90;99.90;;;;;;4940498;29;20248;-83
2023/02/09 05:40:45;;;;;;;113.95;60.38;;;-3.90;99.90;;;;;;4950965;29;20204;-79
2023/02/09 05:43:13;;;;;;;120.22;59.45;;;-3.90;99.90;;;;;;4946348;29;20220;-77
2023/02/09 05:45:40;;;;;;;120.22;56.75;;;-4.00;99.90;;;;;;4963089;29;20293;-79
2023/02/09 05:48:07;;;;;;;86.88;49.17;;;-4.00;99.90;;;;;;4952291;29;20211;-80
2023/02/09 05:50:35;;;;;;;79.03;45.42;;;-4.00;99.90;;;;;;4954654;28;20199;-79
2023/02/09 05:53:01;;;;;;;77.63;38.15;;;-4.10;99.90;;;;;;4955851;29;20211;-81
2023/02/09 05:55:28;;;;;;;68.47;36.28;;;-4.00;99.90;;;;;;4959005;28;20215;-80
2023/02/09 05:57:55;;;;;;;60.33;37.58;;;-4.00;99.90;;;;;;4955533;29;20211;-80
2023/02/09 06:00:23;;;;;;;69.55;37.42;;;-4.00;99.90;;;;;;4955592;29;20527;-79
2023/02/09 06:02:51;;;;;;;70.32;36.40;;;-3.90;99.90;;;;;;4954603;29;20262;-78
2023/02/09 06:05:20;;;;;;;73.70;38.90;;;-3.90;99.90;;;;;;4947984;28;20236;-81
2023/02/09 06:07:48;;;;;;;63.65;35.70;;;-3.80;99.90;;;;;;4952110;29;20211;-79
2023/02/09 06:10:16;;;;;;;57.75;31.52;;;-3.70;99.90;;;;;;4950318;29;20215;-80
2023/02/09 06:12:43;;;;;;;53.05;34.17;;;-3.70;99.90;;;;;;4944926;29;20300;-80
2023/02/09 06:15:10;;;;;;;60.83;32.60;;;-3.70;99.90;;;;;;4947756;29;20215;-79
2023/02/09 06:17:37;;;;;;;57.53;34.08;;;-3.70;99.90;;;;;;4947988;29;20238;-80
2023/02/09 06:20:04;;;;;;;54.35;30.80;;;-3.70;99.90;;;;;;4947807;29;20200;-79
2023/02/09 06:22:33;;;;;;;58.28;32.92;;;-3.60;99.90;;;;;;4964910;29;20220;-80
2023/02/09 06:25:01;;;;;;;51.55;29.17;;;-3.50;99.90;;;;;;4945069;29;20442;-80
2023/02/09 06:27:28;;;;;;;54.22;29.70;;;-3.40;99.90;;;;;;4953346;29;20262;-79
2023/02/09 06:29:55;;;;;;;52.25;29.73;;;-3.50;99.90;;;;;;4947755;29;20251;-81
2023/02/09 06:32:22;;;;;;;47.42;26.45;;;-3.50;99.90;;;;;;4952315;29;20234;-80
2023/02/09 06:34:50;;;;;;;52.40;27.35;;;-3.50;99.90;;;;;;4939533;29;20212;-80
2023/02/09 06:37:17;;;;;;;40.13;24.90;;;-3.40;99.90;;;;;;4943804;29;20272;-80
2023/02/09 06:39:45;;;;;;;47.65;24.85;;;-3.30;99.90;;;;;;4946958;29;20214;-81
2023/02/09 06:42:12;;;;;;;47.35;27.08;;;-3.20;99.90;;;;;;4943714;29;20254;-81
2023/02/09 06:44:39;;;;;;;43.03;24.17;;;-3.10;99.90;;;;;;4949473;29;20257;-79
2023/02/09 06:47:06;;;;;;;48.15;24.27;;;-3.10;99.90;;;;;;4933844;29;20541;-80
2023/02/09 06:49:33;;;;;;;35.13;21.00;;;-3.10;99.90;;;;;;4956081;29;20220;-81
2023/02/09 06:52:02;;;;;;;32.92;21.48;;;-3.00;99.90;;;;;;4949581;29;20207;-79
2023/02/09 06:54:29;;;;;;;36.97;22.15;;;-2.90;99.90;;;;;;4947185;28;20227;-79
2023/02/09 06:56:56;;;;;;;34.75;22.52;;;-2.80;99.90;;;;;;4945595;29;20244;-81
2023/02/09 06:59:23;;;;;;;38.80;19.27;;;-2.70;99.90;;;;;;4956550;29;20311;-78
2023/02/09 07:01:51;;;;;;;30.05;18.92;;;-2.70;99.90;;;;;;4945198;29;20255;-78
2023/02/09 07:04:22;;;;;;;31.23;18.70;;;-2.50;99.90;;;;;;4947752;29;20299;-81
2023/02/09 07:06:49;;;;;;;27.20;16.73;;;-2.40;99.90;;;;;;4950325;29;20239;-80
2023/02/09 07:09:16;;;;;;;32.90;16.95;;;-2.40;99.90;;;;;;4956307;29;20210;-80
2023/02/09 07:11:43;;;;;;;34.17;19.52;;;-2.20;99.90;;;;;;4954309;29;20262;-80
2023/02/09 07:14:10;;;;;;;33.53;19.20;;;-2.10;99.90;;;;;;4956860;28;20203;-77
2023/02/09 07:16:38;;;;;;;24.60;15.27;;;-2.00;99.90;;;;;;4937481;29;20240;-78
2023/02/09 07:19:05;;;;;;;26.17;15.95;;;-1.90;99.90;;;;;;4954950;29;20255;-78
2023/02/09 07:21:31;;;;;;;25.98;14.45;;;-1.70;99.90;;;;;;4961308;28;20483;-79
2023/02/09 07:23:59;;;;;;;19.67;14.07;;;-1.60;99.90;;;;;;4950874;29;20203;-81
2023/02/09 07:26:26;;;;;;;26.02;16.45;;;-1.40;99.90;;;;;;4947619;28;20574;-81
2023/02/09 07:28:53;;;;;;;20.83;13.15;;;-1.10;99.90;;;;;;4950553;28;20210;-81
2023/02/09 07:31:20;;;;;;;20.17;13.45;;;-0.70;99.90;;;;;;4957704;28;20199;-81
2023/02/09 07:33:47;;;;;;;17.63;11.55;;;-0.30;99.90;;;;;;4958159;29;20479;-80
2023/02/09 07:36:15;;;;;;;19.40;12.52;;;0.10;99.90;;;;;;4966347;29;20215;-80
2023/02/09 07:38:43;;;;;;;15.77;10.38;;;0.40;99.90;;;;;;4942885;29;20223;-79
2023/02/09 07:41:16;;;;;;;16.90;10.43;;;0.60;99.90;;;;;;4948400;29;20274;-77
2023/02/09 07:43:44;;;;;;;21.60;10.48;;;0.90;99.90;;;;;;4951603;29;20239;-80
2023/02/09 07:46:14;;;;;;;16.92;10.95;;;1.10;99.90;;;;;;4949641;28;20235;-80
2023/02/09 07:48:44;;;;;;;14.02;9.65;;;1.40;99.90;;;;;;4950318;29;20267;-80
2023/02/09 07:51:18;;;;;;;17.77;10.00;;;2.00;99.90;;;;;;4941919;29;20213;-78
2023/02/09 07:53:46;;;;;;;13.15;9.65;;;2.50;99.90;;;;;;4942497;29;20260;-79
2023/02/09 07:56:13;;;;;;;15.82;8.68;;;3.40;99.90;;;;;;4950986;29;20262;-79
2023/02/09 07:58:40;;;;;;;11.85;8.20;;;3.80;99.90;;;;;;4950989;29;20742;-78
2023/02/09 08:01:10;;;;;;;22.20;11.18;;;4.50;99.90;;;;;;4956501;28;20230;-80
2023/02/09 08:03:39;;;;;;;20.85;11.48;;;5.20;99.90;;;;;;4940813;29;20196;-78
2023/02/09 08:06:17;;;;;;;16.77;10.55;;;5.40;99.90;;;;;;4939096;29;20259;-81
2023/02/09 08:08:48;;;;;;;13.88;9.10;;;5.70;99.90;;;;;;4948410;28;20279;-81
2023/02/09 08:11:17;;;;;;;11.40;6.97;;;5.80;99.90;;;;;;4946593;29;20275;-78
2023/02/09 08:13:45;;;;;;;13.95;8.95;;;5.90;99.90;;;;;;4941158;29;20207;-80
2023/02/09 08:16:15;;;;;;;12.15;7.85;;;6.20;99.90;;;;;;4947977;29;20211;-79
2023/02/09 08:19:03;;;;;;;7.07;6.32;;;6.80;99.90;;;;;;4951991;29;20469;-80
2023/02/09 08:24:56;;;;;;;8.57;7.13;;;6.20;99.90;;;;;;4947044;29;20207;-78
2023/02/09 08:27:24;;;;;;;13.73;8.00;;;4.30;99.90;;;;;;4946824;29;20508;-79
2023/02/09 08:29:51;;;;;;;11.70;7.60;;;3.30;99.90;;;;;;4955957;28;20283;-77
2023/02/09 08:32:18;;;;;;;11.43;7.30;;;2.50;99.90;;;;;;4943724;29;20294;-78
2023/02/09 09:31:38;;;;;;;11.23;8.80;;;4.60;99.90;;;;;;4924373;29;20518;-77
2023/02/09 09:34:05;;;;;;;10.10;6.95;;;4.10;99.90;;;;;;4929948;29;20494;-78
2023/02/09 09:36:32;;;;;;;16.52;9.98;;;4.00;99.90;;;;;;4935120;29;20239;-78
2023/02/09 09:38:59;;;;;;;20.58;9.77;;;3.60;99.90;;;;;;4915627;29;20459;-76
2023/02/09 09:41:37;;;;;;;16.58;9.27;;;3.40;99.90;;;;;;4920778;29;20219;-77
2023/02/09 09:44:14;;;;;;;14.13;8.02;;;3.40;99.90;;;;;;4916503;29;20218;-78
2023/02/09 09:46:46;;;;;;;9.25;6.90;;;3.30;99.90;;;;;;4932690;29;20218;-78
2023/02/09 09:49:22;;;;;;;13.00;8.27;;;3.30;99.90;;;;;;4945484;29;20267;-77
2023/02/09 09:52:13;;;;;;;12.65;8.50;;;3.40;99.90;;;;;;4921231;29;20218;-79
2023/02/09 09:54:41;;;;;;;22.95;9.57;;;3.30;99.90;;;;;;4925740;29;20211;-78
2023/02/09 09:57:29;;;;;;;12.70;8.52;;;3.20;99.90;;;;;;4926444;29;20522;-77
2023/02/09 09:59:56;;;;;;;17.65;7.78;;;3.30;99.90;;;;;;4911452;29;20574;-77
2023/02/09 10:02:31;;;;;;;11.48;6.50;;;3.20;99.90;;;;;;4917874;29;20450;-77
2023/02/09 10:05:22;;;;;;;11.85;6.18;;;3.30;99.90;;;;;;4918672;29;20414;-78
2023/02/09 10:08:01;;;;;;;19.17;7.88;;;3.30;99.90;;;;;;4916200;29;20270;-76
2023/02/09 10:10:31;;;;;;;10.68;6.40;;;3.30;99.90;;;;;;4920758;29;20234;-77
2023/02/09 10:13:01;;;;;;;11.77;7.10;;;3.30;99.90;;;;;;4925150;29;20211;-77
2023/02/09 10:15:33;;;;;;;15.43;7.50;;;3.30;99.90;;;;;;4919760;29;20431;-78
2023/02/09 10:18:00;;;;;;;11.52;6.72;;;3.40;99.90;;;;;;4921348;29;20496;-76
2023/02/09 10:21:01;;;;;;;8.77;6.15;;;3.40;99.90;;;;;;4929832;29;20211;-77
2023/02/09 10:23:40;;;;;;;11.10;7.72;;;3.40;99.90;;;;;;4927919;29;20215;-77
2023/02/09 10:26:07;;;;;;;11.05;7.22;;;3.40;99.90;;;;;;4921987;29;20235;-79
2023/02/09 10:28:38;;;;;;;12.70;7.18;;;3.50;99.90;;;;;;4917640;29;20220;-78
2023/02/09 10:31:32;;;;;;;11.77;6.55;;;3.50;99.90;;;;;;4921720;29;20215;-77
2023/02/09 10:34:13;;;;;;;15.98;8.15;;;3.40;99.90;;;;;;4920679;29;20230;-78
2023/02/09 10:36:50;;;;;;;7.25;5.03;;;3.50;99.90;;;;;;4920983;29;20219;-78
2023/02/09 10:39:32;;;;;;;14.50;8.15;;;3.50;99.90;;;;;;4921445;29;20223;-78
2023/02/09 10:42:18;;;;;;;8.85;6.65;;;3.50;99.90;;;;;;4920477;29;20199;-79
2023/02/09 10:44:51;;;;;;;8.45;5.90;;;3.30;99.90;;;;;;4924225;29;20258;-80
2023/02/09 10:47:25;;;;;;;14.38;7.25;;;3.40;99.90;;;;;;4921381;29;20265;-79
2023/02/09 10:50:12;;;;;;;10.30;6.22;;;3.50;99.90;;;;;;4920894;29;20574;-79
2023/02/09 10:53:00;;;;;;;15.02;7.93;;;3.50;99.90;;;;;;4919832;29;20211;-79
2023/02/09 10:55:38;;;;;;;10.93;6.22;;;3.60;99.90;;;;;;4923138;29;20223;-79
2023/02/09 10:58:08;;;;;;;11.68;8.07;;;3.50;99.90;;;;;;4919089;29;20511;-79
2023/02/09 11:00:52;;;;;;;10.82;7.35;;;3.60;99.90;;;;;;4930224;29;20243;-81
2023/02/09 11:03:24;;;;;;;15.57;7.28;;;3.60;99.90;;;;;;4914842;29;20226;-79
2023/02/09 11:06:18;;;;;;;10.82;6.35;;;3.80;99.90;;;;;;4925944;29;20475;-79
2023/02/09 11:08:59;;;;;;;12.57;7.88;;;3.80;99.90;;;;;;4924402;29;20230;-80
2023/02/09 11:11:34;;;;;;;13.57;7.20;;;3.90;99.90;;;;;;4945189;29;20274;-80
2023/02/09 11:14:01;;;;;;;9.80;7.50;;;3.90;99.90;;;;;;4927541;29;20210;-81
2023/02/09 11:16:46;;;;;;;7.32;6.03;;;3.80;99.90;;;;;;4922506;29;20214;-80
2023/02/09 11:19:22;;;;;;;16.92;7.22;;;3.80;99.90;;;;;;4925310;29;20208;-80
2023/02/09 11:22:12;;;;;;;9.85;6.32;;;3.80;99.90;;;;;;4915912;29;20282;-81
2023/02/09 11:25:03;;;;;;;10.20;6.68;;;3.80;99.90;;;;;;4924830;29;20287;-82
2023/02/09 11:27:36;;;;;;;8.90;6.68;;;3.80;99.90;;;;;;4917122;29;20242;-81
2023/02/09 11:30:06;;;;;;;11.35;6.80;;;3.80;99.90;;;;;;4923420;29;20221;-81
2023/02/09 11:32:47;;;;;;;15.65;7.18;;;3.80;99.90;;;;;;4922266;29;20211;-81
2023/02/09 11:35:18;;;;;;;9.82;7.43;;;3.80;99.90;;;;;;4923153;29;20208;-82
2023/02/09 11:37:52;;;;;;;9.75;6.53;;;3.80;99.90;;;;;;4929863;29;20225;-79
2023/02/09 11:40:28;;;;;;;9.38;5.85;;;3.80;99.90;;;;;;4925883;29;20266;-81
2023/02/09 11:42:58;;;;;;;11.82;6.35;;;4.00;99.90;;;;;;4922155;29;20203;-82
2023/02/09 11:45:38;;;;;;;7.60;5.07;;;4.00;99.90;;;;;;4925172;29;20211;-82
2023/02/09 11:48:11;;;;;;;12.07;6.20;;;4.00;99.90;;;;;;4924464;29;20211;-82
2023/02/09 11:50:41;;;;;;;8.48;6.50;;;3.90;99.90;;;;;;4926153;29;20241;-81
2023/02/09 11:53:21;;;;;;;10.40;6.53;;;4.00;99.90;;;;;;4924038;29;20208;-82
2023/02/09 11:55:56;;;;;;;10.25;6.25;;;3.90;99.90;;;;;;4921794;29;20215;-82
2023/02/09 11:58:37;;;;;;;9.13;6.55;;;4.00;99.90;;;;;;4924437;29;20582;-82
2023/02/09 12:01:23;;;;;;;9.82;7.30;;;4.00;99.90;;;;;;4923252;29;20207;-82
2023/02/09 12:03:56;;;;;;;18.10;6.88;;;4.00;99.90;;;;;;4933459;29;20218;-83
2023/02/09 12:06:24;;;;;;;9.38;5.68;;;4.10;99.90;;;;;;4934301;29;20579;-81
2023/02/09 12:09:03;;;;;;;10.85;6.15;;;4.10;99.90;;;;;;4922867;29;20401;-82
2023/02/09 12:11:53;;;;;;;13.00;7.15;;;4.10;99.90;;;;;;4930923;29;20286;-81
2023/02/09 12:14:22;;;;;;;10.40;6.38;;;4.00;99.90;;;;;;4926723;29;20255;-82
2023/02/09 12:16:59;;;;;;;15.07;7.35;;;4.00;99.90;;;;;;4913730;29;20267;-82
2023/02/09 12:19:36;;;;;;;12.52;7.45;;;4.20;99.90;;;;;;4922000;29;20262;-83
2023/02/09 12:22:34;;;;;;;10.35;6.00;;;4.20;99.90;;;;;;4928133;29;20219;-82
2023/02/09 12:25:24;;;;;;;8.52;6.40;;;4.20;99.90;;;;;;4916291;29;20389;-82
2023/02/09 12:28:03;;;;;;;10.48;6.35;;;4.20;99.90;;;;;;4926402;29;20239;-81
2023/02/09 12:30:50;;;;;;;9.98;6.28;;;4.40;99.90;;;;;;4921353;29;20216;-82
2023/02/09 12:33:23;;;;;;;13.48;6.70;;;4.40;99.90;;;;;;4895238;29;20286;-81
2023/02/09 12:36:30;;;;;;;8.77;5.95;;;4.20;99.90;;;;;;4922046;29;20435;-83
2023/02/09 12:38:59;;;;;;;9.73;5.75;;;4.10;99.90;;;;;;4910383;29;20219;-83
2023/02/09 12:41:50;;;;;;;7.85;5.40;;;4.20;99.90;;;;;;4920318;29;20286;-82
2023/02/09 12:44:18;;;;;;;10.43;6.85;;;4.10;99.90;;;;;;4917742;29;20351;-83
2023/02/09 12:46:51;;;;;;;7.97;5.60;;;4.20;99.90;;;;;;4923859;29;20235;-82
2023/02/09 12:49:27;;;;;;;12.70;6.75;;;4.20;99.90;;;;;;4923833;29;20211;-83
2023/02/09 12:52:00;;;;;;;7.43;5.63;;;4.10;99.90;;;;;;4913919;29;20263;-83
2023/02/09 12:54:42;;;;;;;8.38;6.65;;;4.10;99.90;;;;;;4933701;29;20286;-83
2023/02/09 12:57:16;;;;;;;8.68;6.53;;;4.10;99.90;;;;;;4925097;29;20208;-84
2023/02/09 12:59:49;;;;;;;12.00;6.93;;;4.20;99.90;;;;;;4926264;29;20525;-83
2023/02/09 13:02:48;;;;;;;7.38;5.70;;;4.20;99.90;;;;;;4928173;29;20284;-83
2023/02/09 13:05:22;;;;;;;7.38;5.80;;;4.20;99.90;;;;;;4922091;29;20251;-82
2023/02/09 13:08:11;;;;;;;8.90;6.38;;;4.20;99.90;;;;;;4920798;29;20308;-85
2023/02/09 13:10:46;;;;;;;9.15;6.72;;;4.10;99.90;;;;;;4923240;29;20216;-82
2023/02/09 13:13:33;;;;;;;11.90;6.88;;;4.10;99.90;;;;;;4925105;29;20526;-85
2023/02/09 13:16:03;;;;;;;12.90;7.40;;;4.10;99.90;;;;;;4925054;29;20559;-82
2023/02/09 13:18:40;;;;;;;13.70;8.13;;;4.20;99.90;;;;;;4929590;29;20211;-81
2023/02/09 13:21:36;;;;;;;9.68;6.47;;;4.10;99.90;;;;;;4936020;29;20241;-82
2023/02/09 13:24:11;;;;;;;11.00;8.18;;;4.00;99.90;;;;;;4914604;29;20216;-82
2023/02/09 13:26:48;;;;;;;12.13;7.07;;;4.10;99.90;;;;;;4919148;29;20275;-84
2023/02/09 13:29:21;;;;;;;12.00;6.55;;;4.10;99.90;;;;;;4938009;29;20582;-83
2023/02/09 13:32:06;;;;;;;16.17;9.98;;;4.20;99.90;;;;;;4934197;29;20255;-84
2023/02/09 13:34:52;;;;;;;13.70;8.57;;;4.10;99.90;;;;;;4926500;29;20211;-83
2023/02/09 13:37:28;;;;;;;12.13;8.35;;;4.20;99.90;;;;;;4920292;29;20212;-81
2023/02/09 13:40:19;;;;;;;14.35;8.90;;;4.10;99.90;;;;;;4925001;29;20215;-81
2023/02/09 13:43:10;;;;;;;11.18;7.28;;;4.10;99.90;;;;;;4915839;29;20210;-82
2023/02/09 13:45:48;;;;;;;10.55;7.13;;;4.10;99.90;;;;;;4936365;29;20223;-81
2023/02/09 13:48:29;;;;;;;12.02;7.55;;;4.00;99.90;;;;;;4923027;29;20231;-82
2023/02/09 13:50:58;;;;;;;19.13;9.90;;;4.00;99.90;;;;;;4927553;29;20215;-82
2023/02/09 13:53:27;;;;;;;13.68;8.38;;;3.90;99.90;;;;;;4920688;29;20213;-82
2023/02/09 13:55:56;;;;;;;12.15;8.35;;;3.90;99.90;;;;;;4922406;29;20223;-83
2023/02/09 13:58:28;;;;;;;16.20;9.48;;;3.90;99.90;;;;;;4927340;29;20270;-83
2023/02/09 14:00:57;;;;;;;15.52;9.02;;;3.80;99.90;;;;;;4913854;29;20242;-84
2023/02/09 14:03:31;;;;;;;15.75;9.10;;;3.80;99.90;;;;;;4923739;29;20222;-83